createdAt,value
2023-01-28T00:01:34.900Z,78.13
2023-01-28T00:06:38.156Z,78.10
2023-01-28T00:11:41.421Z,78.58
2023-01-28T00:16:44.114Z,78.34
2023-01-28T00:21:46.774Z,78.16
2023-01-28T00:26:49.518Z,78.37
2023-01-28T00:31:52.315Z,78.51
2023-01-28T00:36:58.012Z,78.31
2023-01-28T00:42:00.765Z,78.47
2023-01-28T00:47:03.459Z,78.33
2023-01-28T00:52:06.091Z,78.39
2023-01-28T00:57:08.989Z,78.78
2023-01-28T01:02:14.574Z,78.53
2023-01-28T01:07:17.310Z,78.62
2023-01-28T01:12:22.692Z,78.41
2023-01-28T01:17:26.870Z,78.43
2023-01-28T01:22:29.789Z,78.50
2023-01-28T01:27:33.271Z,78.66
2023-01-28T01:32:36.691Z,78.55
2023-01-28T01:37:39.574Z,78.17
2023-01-28T01:42:42.817Z,78.69
2023-01-28T01:47:51.624Z,78.11
2023-01-28T01:52:56.964Z,78.09
2023-01-28T01:58:03.627Z,78.23
2023-01-28T02:03:06.563Z,78.30
2023-01-28T02:08:25.872Z,77.99
2023-01-28T02:13:33.222Z,78.18
2023-01-28T02:18:37.073Z,77.97
2023-01-28T02:23:49.421Z,77.99
2023-01-28T02:29:06.590Z,78.06
2023-01-28T02:34:40.163Z,78.09
2023-01-28T02:39:55.367Z,78.13
2023-01-28T02:44:59.239Z,78.45
2023-01-28T02:50:10.927Z,77.87
2023-01-28T02:55:40.997Z,78.19
2023-01-28T03:01:14.634Z,78.50
2023-01-28T03:06:22.459Z,77.99
2023-01-28T03:11:45.083Z,78.07
2023-01-28T03:17:06.690Z,77.77
2023-01-28T03:22:27.828Z,78.03
2023-01-28T03:28:09.536Z,77.56
2023-01-28T03:33:31.434Z,78.16
2023-01-28T03:38:42.400Z,77.66
2023-01-28T03:43:47.732Z,77.78
2023-01-28T03:48:50.828Z,77.57
2023-01-28T03:53:53.700Z,77.53
2023-01-28T03:58:57.688Z,77.02
2023-01-28T04:04:00.534Z,76.80
2023-01-28T04:09:06.284Z,76.65
2023-01-28T04:14:29.456Z,77.15
2023-01-28T04:19:42.536Z,77.25
2023-01-28T04:24:45.529Z,77.10
2023-01-28T04:29:48.574Z,77.07
2023-01-28T04:35:10.529Z,77.38
2023-01-28T04:40:34.983Z,77.18
2023-01-28T04:45:45.016Z,76.70
2023-01-28T04:50:57.669Z,77.41
2023-01-28T04:56:18.929Z,76.87
2023-01-28T05:01:22.455Z,77.04
2023-01-28T05:06:29.378Z,76.80
2023-01-28T05:11:37.861Z,76.51
2023-01-28T05:16:41.948Z,76.42
2023-01-28T05:21:44.639Z,75.85
2023-01-28T05:26:57.299Z,74.86
2023-01-28T05:32:00.055Z,74.88
2023-01-28T05:37:02.857Z,74.69
2023-01-28T05:42:07.945Z,74.91
2023-01-28T05:47:15.995Z,74.03
2023-01-28T05:52:28.140Z,73.83
2023-01-28T05:57:31.993Z,73.57
2023-01-28T06:02:34.878Z,72.72
2023-01-28T06:07:37.829Z,72.13
2023-01-28T06:12:43.130Z,72.00
2023-01-28T06:18:04.506Z,71.86
2023-01-28T06:23:10.932Z,71.07
2023-01-28T06:28:14.451Z,70.45
2023-01-28T06:33:17.122Z,70.41
2023-01-28T06:38:20.194Z,70.20
2023-01-28T06:43:28.387Z,69.65
2023-01-28T06:48:31.249Z,69.18
2023-01-28T06:53:34.225Z,67.60
2023-01-28T06:58:37.062Z,67.35
2023-01-28T07:03:39.762Z,67.61
2023-01-28T07:08:42.586Z,67.47
2023-01-28T07:13:45.643Z,67.15
2023-01-28T07:18:48.310Z,67.95
2023-01-28T07:23:51.424Z,68.40
2023-01-28T07:28:54.136Z,67.79
2023-01-28T07:33:56.966Z,68.20
2023-01-28T07:38:59.636Z,68.35
2023-01-28T07:44:02.628Z,68.31
2023-01-28T07:49:05.373Z,68.18
2023-01-28T07:54:09.098Z,68.47
2023-01-28T07:59:11.820Z,68.66
2023-01-28T08:04:14.841Z,67.83
2023-01-28T08:09:17.731Z,68.54
2023-01-28T08:14:20.526Z,68.55
2023-01-28T08:19:23.400Z,68.00
2023-01-28T08:24:26.158Z,68.49
2023-01-28T08:29:29.079Z,66.96
2023-01-28T08:34:31.845Z,67.31
2023-01-28T08:39:34.568Z,67.77
2023-01-28T08:44:37.452Z,67.87
2023-01-28T08:49:40.365Z,67.91
2023-01-28T08:54:43.184Z,68.70
2023-01-28T08:59:46.733Z,68.11
2023-01-28T09:04:49.407Z,67.84
2023-01-28T09:09:52.101Z,67.99
2023-01-28T09:14:54.867Z,68.51
2023-01-28T09:19:57.553Z,68.10
2023-01-28T09:25:00.179Z,68.27
2023-01-28T09:30:03.024Z,68.52
2023-01-28T09:35:06.697Z,69.15
2023-01-28T09:40:16.420Z,69.97
2023-01-28T09:45:39.963Z,70.56
2023-01-28T09:50:45.967Z,70.38
2023-01-28T09:55:58.236Z,70.50
2023-01-28T10:01:40.328Z,71.45
2023-01-28T10:07:01.669Z,70.97
2023-01-28T10:12:16.194Z,71.23
2023-01-28T10:17:31.041Z,72.11
2023-01-28T10:22:41.877Z,72.19
2023-01-28T10:27:45.014Z,71.76
2023-01-28T10:33:04.230Z,71.85
2023-01-28T10:38:09.185Z,71.18
2023-01-28T10:43:12.124Z,71.41
2023-01-28T10:48:24.589Z,71.49
2023-01-28T10:53:44.459Z,72.15
2023-01-28T10:59:06.047Z,71.88
2023-01-28T11:04:18.215Z,71.62
2023-01-28T11:09:25.648Z,71.89
2023-01-28T11:14:28.568Z,72.16
2023-01-28T11:19:37.388Z,71.98
2023-01-28T11:24:40.119Z,71.86
2023-01-28T11:29:43.090Z,72.26
2023-01-28T11:34:51.109Z,72.09
2023-01-28T11:40:05.498Z,71.81
2023-01-28T11:45:16.910Z,72.05
2023-01-28T11:50:45.025Z,72.41
2023-01-28T11:56:07.236Z,72.46
2023-01-28T12:01:33.497Z,72.98
2023-01-28T12:07:02.206Z,73.33
2023-01-28T12:12:43.508Z,73.89
2023-01-28T12:18:08.303Z,74.11
2023-01-28T12:23:37.720Z,73.69
2023-01-28T12:29:22.418Z,73.39
2023-01-28T12:34:48.074Z,73.73
2023-01-28T12:40:10.181Z,73.54
2023-01-28T12:45:26.775Z,73.15
2023-01-28T12:50:42.297Z,73.19
2023-01-28T12:55:48.342Z,73.35
2023-01-28T13:00:52.445Z,73.82
2023-01-28T13:06:13.548Z,73.50
2023-01-28T13:11:17.901Z,73.52
2023-01-28T13:16:28.591Z,74.18
2023-01-28T13:21:48.609Z,74.37
2023-01-28T13:26:58.232Z,74.56
2023-01-28T13:32:03.703Z,74.36
2023-01-28T13:37:22.715Z,74.57
2023-01-28T13:42:28.119Z,74.31
2023-01-28T13:47:34.081Z,74.28
2023-01-28T13:52:59.876Z,74.88
2023-01-28T13:58:05.721Z,74.36
2023-01-28T14:03:26.808Z,74.03
2023-01-28T14:08:47.868Z,74.31
2023-01-28T14:13:50.500Z,74.12
2023-01-28T14:18:53.518Z,73.85
2023-01-28T14:23:59.016Z,73.56
2023-01-28T14:29:37.116Z,73.37
2023-01-28T14:34:40.158Z,73.02
2023-01-28T14:39:57.664Z,72.95
2023-01-28T14:45:26.982Z,73.20
2023-01-28T14:50:49.325Z,73.21
2023-01-28T14:55:53.815Z,73.39
2023-01-28T15:00:57.722Z,73.51
2023-01-28T15:06:18.406Z,74.02
2023-01-28T15:11:24.255Z,73.79
2023-01-28T15:16:29.521Z,74.23
2023-01-28T15:21:32.662Z,74.74
2023-01-28T15:26:35.471Z,75.29
2023-01-28T15:31:39.406Z,75.26
2023-01-28T15:36:42.428Z,75.36
2023-01-28T15:41:48.748Z,75.08
2023-01-28T15:46:51.576Z,75.03
2023-01-28T15:51:54.851Z,75.03
2023-01-28T15:56:58.086Z,74.82
2023-01-28T16:02:20.842Z,74.83
2023-01-28T16:07:24.781Z,74.06
2023-01-28T16:12:27.962Z,73.54
2023-01-28T16:17:42.124Z,72.93
2023-01-28T16:22:44.814Z,73.24
2023-01-28T16:27:47.971Z,72.44
2023-01-28T16:32:51.343Z,72.23
2023-01-28T16:37:54.268Z,71.32
2023-01-28T16:42:57.304Z,71.14
2023-01-28T16:48:00.010Z,71.90
2023-01-28T16:53:02.743Z,71.84
2023-01-28T16:58:05.634Z,70.94
2023-01-28T17:03:08.635Z,71.33
2023-01-28T17:08:11.301Z,70.76
2023-01-28T17:13:14.056Z,70.84
2023-01-28T17:18:16.797Z,70.89
2023-01-28T17:23:23.362Z,71.05
2023-01-28T17:28:26.109Z,70.97
2023-01-28T17:33:28.968Z,70.55
2023-01-28T17:38:31.819Z,70.76
2023-01-28T17:43:34.876Z,70.55
2023-01-28T17:48:37.563Z,70.00
2023-01-28T17:53:40.398Z,69.59
2023-01-28T17:58:43.164Z,69.95
2023-01-28T18:03:46.156Z,69.26
2023-01-28T18:08:49.052Z,70.19
2023-01-28T18:13:51.823Z,70.06
2023-01-28T18:18:54.576Z,69.61
2023-01-28T18:23:57.224Z,69.17
2023-01-28T18:28:59.939Z,69.14
2023-01-28T18:34:03.640Z,68.86
2023-01-28T18:39:06.472Z,68.38
2023-01-28T18:44:10.754Z,67.83
2023-01-28T18:49:13.652Z,68.10
2023-01-28T18:54:16.679Z,68.50
2023-01-28T18:59:19.842Z,67.97
2023-01-28T19:04:22.706Z,67.71
2023-01-28T19:09:25.844Z,67.82
2023-01-28T19:14:28.545Z,66.90
2023-01-28T19:19:31.154Z,67.16
2023-01-28T19:24:35.593Z,67.34
2023-01-28T19:29:38.252Z,67.54
2023-01-28T19:34:40.994Z,68.08
2023-01-28T19:39:44.523Z,67.46
2023-01-28T19:44:47.211Z,67.37
2023-01-28T19:49:50.036Z,67.32
2023-01-28T19:54:52.808Z,67.85
2023-01-28T19:59:55.532Z,67.60
2023-01-28T20:05:01.020Z,67.60
2023-01-28T20:10:05.960Z,67.49
2023-01-28T20:15:09.269Z,67.34
2023-01-28T20:20:12.370Z,67.31
2023-01-28T20:25:16.796Z,67.61
2023-01-28T20:30:19.858Z,67.43
2023-01-28T20:35:22.597Z,67.27
2023-01-28T20:40:25.283Z,67.65
2023-01-28T20:45:28.129Z,68.05
2023-01-28T20:50:30.737Z,67.89
2023-01-28T20:55:33.778Z,67.46
2023-01-28T21:00:36.337Z,67.61
2023-01-28T21:05:39.010Z,67.75
2023-01-28T21:10:42.573Z,67.98
2023-01-28T21:15:55.545Z,67.72
2023-01-28T21:21:06.510Z,68.13
2023-01-28T21:26:10.076Z,68.12
2023-01-28T21:31:19.390Z,68.25
2023-01-28T21:36:23.043Z,67.80
2023-01-28T21:41:26.198Z,68.17
2023-01-28T21:46:31.482Z,68.06
2023-01-28T21:51:46.466Z,68.89
2023-01-28T21:56:50.747Z,68.55
2023-01-28T22:01:53.513Z,69.54
2023-01-28T22:06:56.433Z,69.31
2023-01-28T22:11:59.228Z,69.58
2023-01-28T22:17:02.526Z,69.61
2023-01-28T22:22:05.416Z,69.48
2023-01-28T22:27:08.201Z,69.39
2023-01-28T22:32:10.864Z,69.33
2023-01-28T22:37:15.547Z,69.50
2023-01-28T22:42:18.146Z,70.06
2023-01-28T22:47:20.867Z,70.58
2023-01-28T22:52:23.756Z,71.46
2023-01-28T22:57:26.479Z,71.94
2023-01-28T23:02:29.235Z,72.30
2023-01-28T23:07:32.411Z,72.41
2023-01-28T23:12:35.204Z,72.29
2023-01-28T23:17:56.515Z,72.57
2023-01-28T23:23:17.945Z,72.53
2023-01-28T23:28:20.671Z,72.60
2023-01-28T23:33:24.806Z,72.57
2023-01-28T23:38:27.848Z,72.66
2023-01-28T23:43:30.857Z,72.80
2023-01-28T23:48:33.667Z,73.00
2023-01-28T23:53:36.461Z,73.14
2023-01-28T23:58:43.721Z,73.31
